Time;durP1;ratioP1;P1;durP2;ratioP2;P2;SDS_P1;SDS_P2;PMS_P1;PMS_P2;Temp;Humidity;BMP_temperature;BMP_pressure;BME280_temperature;BME280_humidity;BME280_pressure;Samples;Min_cycle;Max_cycle;Signal;HPM_P1;HPM_P2
2022/01/25 00:30:28;;;;;;;1999.90;999.90;;;;;;;8.28;74.54;102852.59;15174871;28;20055;-58
2022/01/25 00:38:08;;;;;;;1999.90;999.90;;;;;;;8.34;74.24;102849.63;15396172;28;20050;-59
2022/01/25 00:45:41;;;;;;;1999.90;999.90;;;;;;;8.39;73.82;102840.47;15432010;28;20043;-58
2022/01/25 01:01:05;;;;;;;1999.90;999.90;;;;;;;8.12;74.46;102815.44;15449502;28;20463;-58
2022/01/25 01:08:40;;;;;;;1999.90;999.90;;;;;;;8.14;74.61;102804.91;15426429;28;20105;-60
2022/01/25 01:16:38;;;;;;;1999.90;999.90;;;;;;;8.15;74.80;102803.81;15414004;28;20442;-57
2022/01/25 01:32:20;;;;;;;1999.90;999.90;;;;;;;8.01;74.95;102791.44;15415495;28;20131;-56
2022/01/25 01:47:47;;;;;;;1999.90;999.90;;;;;;;7.87;74.83;102799.41;15524759;23;20108;-65
2022/01/25 01:55:23;;;;;;;1999.90;999.90;;;;;;;7.92;74.70;102802.25;15492581;28;21207;-65
2022/01/25 02:03:01;;;;;;;1999.90;999.90;;;;;;;7.99;74.77;102805.63;15480437;28;20056;-65
2022/01/25 02:10:38;;;;;;;1999.90;999.90;;;;;;;7.66;75.33;102801.16;15496724;28;20042;-64
2022/01/25 02:26:16;;;;;;;1999.90;999.90;;;;;;;7.77;75.21;102777.06;15464101;28;20060;-65
2022/01/25 02:33:54;;;;;;;1999.90;999.90;;;;;;;7.52;76.15;102775.75;15484550;28;20221;-64
2022/01/25 02:41:31;;;;;;;1999.90;999.90;;;;;;;7.37;76.64;102769.16;15476384;28;20173;-64
2022/01/25 02:49:05;;;;;;;1999.90;999.90;;;;;;;7.64;75.35;102756.13;15493884;28;20034;-64
2022/01/25 02:56:45;;;;;;;1999.90;999.90;;;;;;;7.67;75.31;102751.97;15462241;28;20093;-64
2022/01/25 03:12:43;;;;;;;1999.90;999.90;;;;;;;7.22;75.60;102754.03;15461012;28;20133;-65
2022/01/25 03:20:22;;;;;;;1999.90;999.90;;;;;;;7.11;76.19;102756.97;15476591;28;20377;-65
2022/01/25 03:27:57;;;;;;;1999.90;999.90;;;;;;;7.22;75.97;102755.97;15474566;28;20046;-64
2022/01/25 03:35:39;;;;;;;1999.90;999.90;;;;;;;7.41;74.68;102739.78;15492752;28;20467;-65
2022/01/25 03:43:15;;;;;;;1999.90;999.90;;;;;;;6.76;77.19;102774.84;15492948;28;20172;-65
2022/01/25 03:50:52;;;;;;;1999.90;999.90;;;;;;;6.71;76.89;102772.00;15493672;28;20060;-64
2022/01/25 03:58:33;;;;;;;1999.90;999.90;;;;;;;6.85;75.32;102769.69;15478056;28;20179;-63
2022/01/25 04:06:10;;;;;;;1999.90;999.90;;;;;;;6.79;74.63;102765.19;15475540;28;20038;-66
2022/01/25 04:13:44;;;;;;;1999.90;999.90;;;;;;;6.66;75.35;102771.94;15481439;28;20042;-64
2022/01/25 04:21:30;;;;;;;1999.90;999.90;;;;;;;6.70;74.55;102750.91;15502831;28;20054;-64
2022/01/25 04:29:04;;;;;;;1999.90;999.90;;;;;;;6.72;74.49;102747.88;15470268;28;20085;-63
2022/01/25 04:48:50;;;;;;;1999.90;999.90;;;;;;;6.77;74.89;102737.66;15484523;28;20038;-64
2022/01/25 04:52:53;;;;;;;1999.90;999.90;;;;;;;6.58;74.58;102733.56;15467351;28;20122;-64
2022/01/25 05:00:32;;;;;;;1999.90;999.90;;;;;;;6.72;74.46;102737.59;15483327;28;20097;-64
2022/01/25 05:08:18;;;;;;;1999.90;999.90;;;;;;;6.47;74.25;102746.44;15474307;28;20035;-65
2022/01/25 05:16:06;;;;;;;1999.90;999.90;;;;;;;6.65;73.89;102731.41;15485075;28;20066;-65
2022/01/25 05:23:39;;;;;;;1999.90;999.90;;;;;;;6.28;75.12;102736.75;15474342;28;20104;-63
2022/01/25 05:31:15;;;;;;;1999.90;999.90;;;;;;;6.61;73.86;102733.03;15493064;28;20039;-64
2022/01/25 05:39:09;;;;;;;1999.90;999.90;;;;;;;6.73;73.50;102755.09;15493716;28;20368;-64
2022/01/25 05:46:52;;;;;;;1999.90;999.90;;;;;;;6.49;74.44;102751.72;15465106;28;20411;-63
2022/01/25 05:55:01;;;;;;;1999.90;999.90;;;;;;;6.44;73.96;102759.97;15476447;28;20042;-65
2022/01/25 06:03:31;;;;;;;1999.90;999.90;;;;;;;6.74;73.01;102762.31;15482310;28;20042;-65
2022/01/25 06:11:09;;;;;;;1999.90;999.90;;;;;;;6.58;73.89;102756.59;15463210;28;20543;-64
2022/01/25 06:18:44;;;;;;;1999.90;999.90;;;;;;;6.46;73.49;102763.31;15473833;28;20050;-62
2022/01/25 06:26:17;;;;;;;1999.90;999.90;;;;;;;6.51;73.19;102763.41;15495310;28;20130;-63
2022/01/25 06:33:53;;;;;;;1999.90;999.90;;;;;;;6.54;73.19;102758.16;15458953;28;20133;-64
2022/01/25 06:41:29;;;;;;;1999.90;999.90;;;;;;;6.45;72.74;102762.47;15417314;28;20039;-62
2022/01/25 06:49:08;;;;;;;1999.90;999.90;;;;;;;6.28;73.78;102743.13;15487886;28;20066;-64
2022/01/25 06:56:41;;;;;;;1999.90;999.90;;;;;;;6.58;73.07;102752.97;15536956;28;20080;-63
2022/01/25 07:04:18;;;;;;;1999.90;999.90;;;;;;;6.33;74.36;102750.66;15537108;28;20069;-64
2022/01/25 07:11:51;;;;;;;1999.90;999.90;;;;;;;6.25;74.25;102762.19;15554839;28;20511;-64
2022/01/25 07:19:25;;;;;;;1999.90;999.90;;;;;;;6.49;73.24;102768.38;15537328;28;20387;-65
2022/01/25 07:27:00;;;;;;;1999.90;999.90;;;;;;;6.11;74.21;102775.56;15553441;28;20108;-64
2022/01/25 07:34:34;;;;;;;1999.90;999.90;;;;;;;6.18;74.45;102778.19;15527637;28;20084;-64
2022/01/25 07:42:08;;;;;;;1999.90;999.90;;;;;;;6.28;73.76;102770.84;15493322;28;20053;-64
2022/01/25 07:49:48;;;;;;;1999.90;999.90;;;;;;;6.26;74.49;102763.88;15501096;28;20049;-64
2022/01/25 07:57:21;;;;;;;1999.90;999.90;;;;;;;6.33;73.92;102775.63;15503218;28;20054;-65
2022/01/25 08:04:55;;;;;;;1999.90;999.90;;;;;;;6.61;73.78;102769.09;15485813;28;20054;-65
2022/01/25 08:12:28;;;;;;;1999.90;999.90;;;;;;;6.53;73.94;102772.31;15501983;28;20046;-65
2022/01/25 08:20:03;;;;;;;1999.90;999.90;;;;;;;6.52;74.07;102774.25;15485713;28;20511;-65
2022/01/25 08:27:36;;;;;;;1999.90;999.90;;;;;;;6.41;74.18;102771.59;15500842;28;20104;-65
2022/01/25 08:35:11;;;;;;;1999.90;999.90;;;;;;;6.56;74.37;102772.63;15484720;28;20082;-65
2022/01/25 08:42:44;;;;;;;1999.90;999.90;;;;;;;6.88;74.08;102781.13;15499615;28;20386;-64
2022/01/25 08:50:23;;;;;;;1999.90;999.90;;;;;;;7.04;73.58;102764.63;15478219;28;20190;-64
2022/01/25 08:57:57;;;;;;;1999.90;999.90;;;;;;;7.20;72.11;102758.19;15515053;28;20097;-65
2022/01/25 09:05:31;;;;;;;1999.90;999.90;;;;;;;7.81;71.25;102758.75;15482969;28;20144;-65
2022/01/25 09:13:03;;;;;;;1999.90;999.90;;;;;;;7.67;71.47;102765.84;15500057;28;20078;-65
2022/01/25 09:20:38;;;;;;;1999.90;999.90;;;;;;;7.40;73.16;102757.53;15499643;28;20046;-66
2022/01/25 09:28:12;;;;;;;1999.90;999.90;;;;;;;7.01;74.39;102754.06;15497689;28;20042;-66
2022/01/25 09:35:47;;;;;;;1999.90;999.90;;;;;;;7.27;74.09;102756.00;15496876;28;20117;-65
2022/01/25 09:43:21;;;;;;;1999.90;999.90;;;;;;;7.10;74.63;102735.84;15496910;28;20137;-66
2022/01/25 09:50:56;;;;;;;1999.90;999.90;;;;;;;7.59;73.54;102732.97;15497574;28;20132;-65
2022/01/25 09:58:29;;;;;;;1999.90;999.90;;;;;;;7.02;74.55;102730.75;15495890;28;20047;-66
2022/01/25 10:06:05;;;;;;;1999.90;999.90;;;;;;;7.44;73.00;102739.25;15478803;28;20042;-66
2022/01/25 10:13:42;;;;;;;1999.90;999.90;;;;;;;7.78;71.90;102735.09;15477987;28;20060;-66
2022/01/25 10:21:19;;;;;;;1999.90;999.90;;;;;;;7.37;73.09;102727.50;15510197;28;20038;-65
2022/01/25 10:28:52;;;;;;;1999.90;999.90;;;;;;;7.16;73.79;102729.22;15509904;28;20504;-65
2022/01/25 10:36:26;;;;;;;1999.90;999.90;;;;;;;7.66;73.59;102731.69;15509591;28;20302;-66
2022/01/25 10:43:59;;;;;;;1999.90;999.90;;;;;;;7.59;73.75;102725.50;15476804;28;20101;-65
2022/01/25 10:51:37;;;;;;;1999.90;999.90;;;;;;;7.57;73.98;102741.59;15477395;28;20459;-66
2022/01/25 10:59:14;;;;;;;1999.90;999.90;;;;;;;7.73;74.09;102734.25;15493172;28;20057;-66
2022/01/25 11:06:56;;;;;;;1999.90;999.90;;;;;;;7.98;73.13;102728.03;15491819;28;20049;-68
2022/01/25 11:22:21;;;;;;;1999.90;999.90;;;;;;;7.40;74.45;102716.72;15492418;28;20046;-66
2022/01/25 11:29:58;;;;;;;1999.90;999.90;;;;;;;7.48;74.00;102712.59;15495119;28;20129;-65
2022/01/25 11:37:38;;;;;;;1999.90;999.90;;;;;;;7.74;73.56;102700.63;15492189;28;20047;-64
2022/01/25 11:45:13;;;;;;;1999.90;999.90;;;;;;;7.89;73.48;102688.75;15491606;28;20081;-65
2022/01/25 11:52:54;;;;;;;1999.90;999.90;;;;;;;7.65;73.94;102693.88;15492642;28;20514;-67
2022/01/25 12:00:39;;;;;;;1999.90;999.90;;;;;;;7.62;73.53;102686.09;15473673;28;20049;-66
2022/01/25 12:08:15;;;;;;;1999.90;999.90;;;;;;;7.70;73.08;102690.28;15473902;28;20042;-67
2022/01/25 12:16:23;;;;;;;1999.90;999.90;;;;;;;7.48;73.15;102682.88;15473402;28;20096;-65
2022/01/25 12:24:17;;;;;;;1999.90;999.90;;;;;;;8.28;71.93;102677.34;15457717;28;20062;-66
2022/01/25 12:31:50;;;;;;;1999.90;999.90;;;;;;;7.89;73.34;102660.13;15492259;28;20596;-66
2022/01/25 12:39:36;;;;;;;1999.90;999.90;;;;;;;8.42;71.01;102658.22;15483565;28;20047;-65
2022/01/25 12:47:09;;;;;;;1999.90;999.90;;;;;;;8.10;71.95;102653.59;15515800;28;20041;-67
2022/01/25 12:54:44;;;;;;;1999.90;999.90;;;;;;;7.75;72.58;102649.50;15515077;28;20046;-65
2022/01/25 13:02:20;;;;;;;1999.90;999.90;;;;;;;8.18;71.76;102649.47;15500355;28;20046;-66
2022/01/25 13:09:55;;;;;;;1999.90;999.90;;;;;;;7.93;73.78;102639.06;15481760;28;20042;-67
2022/01/25 13:17:27;;;;;;;1999.90;999.90;;;;;;;7.84;74.94;102626.75;15497687;28;20046;-66
2022/01/25 13:25:14;;;;;;;1999.90;999.90;;;;;;;7.56;74.36;102627.94;15498536;28;20054;-64
2022/01/25 13:32:50;;;;;;;1999.90;999.90;;;;;;;7.24;75.69;102615.75;15453200;28;20542;-65
2022/01/25 13:40:33;;;;;;;1999.90;999.90;;;;;;;7.79;74.89;102622.00;15498195;28;20137;-64
2022/01/25 13:48:08;;;;;;;1999.90;999.90;;;;;;;7.98;74.02;102616.81;15497428;28;20074;-66
2022/01/25 13:55:49;;;;;;;1999.90;999.90;;;;;;;7.85;73.84;102609.81;15513355;28;20396;-65
2022/01/25 14:03:25;;;;;;;1999.90;999.90;;;;;;;7.62;75.34;102593.56;15478878;28;20038;-64
2022/01/25 14:11:01;;;;;;;1999.90;999.90;;;;;;;7.72;75.25;102596.41;15495926;28;20105;-64
2022/01/25 14:26:30;;;;;;;1999.90;999.90;;;;;;;7.41;76.00;102596.19;15478040;28;20093;-66
2022/01/25 14:34:05;;;;;;;1999.90;999.90;;;;;;;7.34;76.42;102589.16;15494450;28;20180;-63
2022/01/25 14:41:39;;;;;;;1999.90;999.90;;;;;;;7.62;75.67;102597.16;15492921;28;20050;-64
2022/01/25 14:49:18;;;;;;;1999.90;999.90;;;;;;;7.74;75.12;102591.41;15497680;28;20046;-64
2022/01/25 14:56:56;;;;;;;1999.90;999.90;;;;;;;7.72;74.49;102590.84;15538418;28;20129;-63
2022/01/25 15:04:31;;;;;;;1999.90;999.90;;;;;;;7.54;75.81;102583.75;15457658;28;20606;-63
2022/01/25 15:12:07;;;;;;;1999.90;999.90;;;;;;;7.64;76.01;102599.66;15478144;28;20046;-64
2022/01/25 15:19:40;;;;;;;1999.90;999.90;;;;;;;7.19;77.82;102600.97;15477511;28;20035;-62
2022/01/25 15:27:27;;;;;;;;;;;;;;;;;;;;;
2022/01/25 15:34:59;;;;;;;1999.90;999.90;;;;;;;7.17;78.51;102617.06;15494055;28;20057;-63
2022/01/25 15:42:35;;;;;;;1999.90;999.90;;;;;;;7.35;77.72;102615.84;15471889;28;20049;-64
2022/01/25 15:50:09;;;;;;;1999.90;999.90;;;;;;;7.46;76.86;102612.88;15476378;28;20081;-61
2022/01/25 15:57:43;;;;;;;1999.90;999.90;;;;;;;7.41;77.37;102620.34;15478112;28;20074;-65
2022/01/25 16:05:21;;;;;;;1999.90;999.90;;;;;;;7.45;76.75;102618.69;15469418;28;20277;-65
2022/01/25 16:12:59;;;;;;;1999.90;999.90;;;;;;;7.40;77.46;102627.84;15487182;28;20164;-64
2022/01/25 16:20:32;;;;;;;1999.90;999.90;;;;;;;7.38;77.16;102623.63;15483976;28;20042;-68
2022/01/25 16:28:07;;;;;;;1999.90;999.90;;;;;;;7.53;77.41;102627.38;15486053;28;20050;-66
2022/01/25 16:35:40;;;;;;;1999.90;999.90;;;;;;;7.09;78.33;102637.00;15500932;28;20054;-64
2022/01/25 16:43:14;;;;;;;1999.90;999.90;;;;;;;7.15;78.48;102633.16;15503309;28;20507;-65
2022/01/25 16:50:48;;;;;;;1999.90;999.90;;;;;;;7.10;78.84;102635.91;15483522;28;20293;-64
2022/01/25 16:58:24;;;;;;;1999.90;999.90;;;;;;;7.42;78.07;102639.53;15484214;28;20077;-66
2022/01/25 17:05:58;;;;;;;1999.90;999.90;;;;;;;7.20;78.46;102642.38;15500158;28;20528;-64
2022/01/25 17:13:34;;;;;;;1999.90;999.90;;;;;;;7.34;77.81;102645.56;15500284;28;20460;-64
2022/01/25 17:21:08;;;;;;;1999.90;999.90;;;;;;;7.14;78.40;102639.81;15482403;28;20057;-65
2022/01/25 17:28:42;;;;;;;1999.90;999.90;;;;;;;7.01;79.36;102645.81;15501411;28;20050;-63
2022/01/25 17:36:15;;;;;;;1999.90;999.90;;;;;;;7.20;78.83;102627.66;15487543;28;20050;-66
2022/01/25 17:43:49;;;;;;;1999.90;999.90;;;;;;;7.28;78.12;102629.94;15464982;28;20046;-64
2022/01/25 17:51:28;;;;;;;1999.90;999.90;;;;;;;7.09;79.20;102632.28;15488494;28;20140;-66
2022/01/25 17:59:03;;;;;;;1999.90;999.90;;;;;;;7.09;78.55;102643.41;15490481;28;20038;-65
2022/01/25 18:06:37;;;;;;;1999.90;999.90;;;;;;;7.10;78.53;102644.22;15487451;28;20541;-65
2022/01/25 18:14:12;;;;;;;1999.90;999.90;;;;;;;7.18;78.95;102644.56;15504623;28;20054;-64
2022/01/25 18:21:48;;;;;;;1999.90;999.90;;;;;;;7.28;78.57;102649.38;15486616;28;20050;-64
2022/01/25 18:29:23;;;;;;;1999.90;999.90;;;;;;;7.33;78.63;102656.94;15502313;28;20057;-63
2022/01/25 18:36:57;;;;;;;1999.90;999.90;;;;;;;7.17;79.16;102659.56;15487614;28;20050;-64
2022/01/25 18:44:31;;;;;;;1999.90;999.90;;;;;;;7.18;78.85;102652.88;15482308;28;20050;-63
2022/01/25 18:52:06;;;;;;;1999.90;999.90;;;;;;;7.10;79.15;102645.06;15489306;28;20035;-64
2022/01/25 18:59:40;;;;;;;1999.90;999.90;;;;;;;6.99;79.97;102640.50;15507450;28;20105;-65
2022/01/25 19:07:22;;;;;;;1999.90;999.90;;;;;;;6.91;79.81;102641.81;15490037;28;20133;-65
2022/01/25 19:14:56;;;;;;;1999.90;999.90;;;;;;;7.11;79.06;102640.34;15475001;28;20558;-66
2022/01/25 19:22:32;;;;;;;1999.90;999.90;;;;;;;6.97;79.26;102639.06;15491754;28;20471;-64
2022/01/25 19:30:15;;;;;;;1999.90;999.90;;;;;;;6.87;79.40;102635.09;15492735;28;20050;-63
2022/01/25 19:37:49;;;;;;;1999.90;999.90;;;;;;;6.98;79.75;102635.19;15504705;28;20049;-66
2022/01/25 19:45:23;;;;;;;1999.90;999.90;;;;;;;6.89;80.34;102630.16;15523563;28;20117;-64
2022/01/25 19:53:00;;;;;;;1999.90;999.90;;;;;;;6.92;80.24;102626.00;15496625;28;20042;-63
2022/01/25 20:00:38;;;;;;;1999.90;999.90;;;;;;;6.83;80.02;102622.03;15485127;28;20109;-64
2022/01/25 20:08:14;;;;;;;1999.90;999.90;;;;;;;6.85;79.88;102617.88;15504774;28;20069;-67
2022/01/25 20:15:58;;;;;;;1999.90;999.90;;;;;;;6.82;80.05;102623.97;15506072;28;20046;-67
2022/01/25 20:23:40;;;;;;;1999.90;999.90;;;;;;;6.79;80.89;102613.38;15512650;28;20074;-61
2022/01/25 20:31:17;;;;;;;1999.90;999.90;;;;;;;6.45;80.83;102607.16;15430309;28;20062;-64
2022/01/25 20:39:12;;;;;;;1999.90;999.90;;;;;;;6.47;81.12;102616.09;15450080;28;20042;-66
2022/01/25 20:46:46;;;;;;;1999.90;999.90;;;;;;;6.71;80.77;102602.75;15472370;28;20101;-67
2022/01/25 20:54:19;;;;;;;1999.90;999.90;;;;;;;6.53;81.40;102600.31;15514595;28;20069;-63
2022/01/25 21:01:57;;;;;;;1999.90;999.90;;;;;;;6.75;80.60;102594.72;15497676;28;20487;-65
2022/01/25 21:09:30;;;;;;;1999.90;999.90;;;;;;;6.97;79.03;102592.72;15490211;28;20097;-63
2022/01/25 21:17:05;;;;;;;1999.90;999.90;;;;;;;7.01;78.60;102601.38;15501786;28;20039;-63
2022/01/25 21:24:44;;;;;;;1999.90;999.90;;;;;;;7.02;79.06;102595.56;15500182;28;20039;-66
2022/01/25 21:32:18;;;;;;;1999.90;999.90;;;;;;;6.83;79.50;102603.44;15482001;28;20061;-67
2022/01/25 21:39:51;;;;;;;1999.90;999.90;;;;;;;6.77;79.65;102595.31;15482545;28;20030;-61
2022/01/25 21:47:27;;;;;;;1999.90;999.90;;;;;;;6.83;80.25;102589.56;15498278;28;20042;-66
2022/01/25 21:55:01;;;;;;;1999.90;999.90;;;;;;;6.80;79.41;102590.09;15482175;28;20042;-65
2022/01/25 22:02:43;;;;;;;1999.90;999.90;;;;;;;7.06;79.18;102588.38;15481607;28;20367;-65
2022/01/25 22:10:22;;;;;;;1999.90;999.90;;;;;;;6.94;79.22;102591.31;15474750;28;20526;-65
2022/01/25 22:17:56;;;;;;;1999.90;999.90;;;;;;;6.62;80.41;102584.91;15458655;28;20088;-65
2022/01/25 22:25:29;;;;;;;1999.90;999.90;;;;;;;6.64;81.04;102586.31;15461140;28;20133;-65
2022/01/25 22:33:09;;;;;;;1999.90;999.90;;;;;;;6.54;81.70;102571.47;15494547;28;20049;-64
2022/01/25 22:40:45;;;;;;;1999.90;999.90;;;;;;;6.42;81.86;102559.72;15492509;28;20042;-63
2022/01/25 22:48:28;;;;;;;1999.90;999.90;;;;;;;6.73;80.81;102561.69;15476012;28;20066;-64
2022/01/25 22:56:01;;;;;;;1999.90;999.90;;;;;;;6.49;82.05;102563.13;15493104;28;20038;-63
2022/01/25 23:03:45;;;;;;;1999.90;999.90;;;;;;;6.64;81.50;102541.91;15474682;28;20367;-63
2022/01/25 23:11:21;;;;;;;1999.90;999.90;;;;;;;6.50;81.80;102550.94;15473647;28;20042;-64
2022/01/25 23:19:05;;;;;;;1999.90;999.90;;;;;;;6.48;82.50;102542.03;15474149;28;20038;-65
2022/01/25 23:26:42;;;;;;;1999.90;999.90;;;;;;;6.28;82.91;102545.41;15492576;28;20050;-65
2022/01/25 23:42:12;;;;;;;1999.90;999.90;;;;;;;6.04;83.34;102526.31;15450501;28;20061;-64
2022/01/25 23:49:54;;;;;;;1999.90;999.90;;;;;;;6.20;83.26;102524.53;15491615;28;20054;-63
